sensor_id;sensor_type;location;lat;lon;timestamp;P1;durP1;ratioP1;P2;durP2;ratioP2
61739;SDS011;47645;45.288;12.038;2022-08-14T00:00:48;2.8;;;1.5;;
61739;SDS011;47645;45.288;12.038;2022-08-14T00:10:49;2.3;;;1.6;;
61739;SDS011;47645;45.288;12.038;2022-08-14T00:20:51;2.8;;;1.6;;
61739;SDS011;47645;45.288;12.038;2022-08-14T00:30:53;3.6;;;2.0;;
61739;SDS011;47645;45.288;12.038;2022-08-14T00:40:53;2.9;;;2.0;;
61739;SDS011;47645;45.288;12.038;2022-08-14T00:50:54;4.0;;;1.9;;
61739;SDS011;47645;45.288;12.038;2022-08-14T01:00:55;3.4;;;1.9;;
61739;SDS011;47645;45.288;12.038;2022-08-14T01:10:57;2.8;;;1.6;;
61739;SDS011;47645;45.288;12.038;2022-08-14T01:21:08;3.0;;;1.9;;
61739;SDS011;47645;45.288;12.038;2022-08-14T01:30:59;4.1;;;2.2;;
61739;SDS011;47645;45.288;12.038;2022-08-14T01:41:00;2.5;;;1.6;;
61739;SDS011;47645;45.288;12.038;2022-08-14T01:51:02;4.6;;;2.5;;
61739;SDS011;47645;45.288;12.038;2022-08-14T02:01:04;3.8;;;2.6;;
61739;SDS011;47645;45.288;12.038;2022-08-14T02:11:22;4.4;;;3.2;;
61739;SDS011;47645;45.288;12.038;2022-08-14T02:21:04;4.8;;;3.7;;
61739;SDS011;47645;45.288;12.038;2022-08-14T02:31:08;5.1;;;3.9;;
61739;SDS011;47645;45.288;12.038;2022-08-14T02:41:08;4.3;;;3.6;;
61739;SDS011;47645;45.288;12.038;2022-08-14T02:51:08;4.6;;;2.5;;
61739;SDS011;47645;45.288;12.038;2022-08-14T03:01:09;5.6;;;3.6;;
61739;SDS011;47645;45.288;12.038;2022-08-14T03:11:11;4.5;;;3.3;;
61739;SDS011;47645;45.288;12.038;2022-08-14T03:21:14;6.1;;;3.1;;
61739;SDS011;47645;45.288;12.038;2022-08-14T03:31:12;3.8;;;2.5;;
61739;SDS011;47645;45.288;12.038;2022-08-14T03:41:17;5.9;;;4.2;;
61739;SDS011;47645;45.288;12.038;2022-08-14T03:51:15;6.2;;;3.7;;
61739;SDS011;47645;45.288;12.038;2022-08-14T04:01:16;5.8;;;3.7;;
61739;SDS011;47645;45.288;12.038;2022-08-14T04:11:16;5.6;;;3.0;;
61739;SDS011;47645;45.288;12.038;2022-08-14T04:21:18;3.7;;;2.7;;
61739;SDS011;47645;45.288;12.038;2022-08-14T04:31:19;7.4;;;4.7;;
61739;SDS011;47645;45.288;12.038;2022-08-14T04:51:21;7.9;;;4.5;;
61739;SDS011;47645;45.288;12.038;2022-08-14T05:01:22;11.1;;;5.8;;
61739;SDS011;47645;45.288;12.038;2022-08-14T05:11:22;4.9;;;3.9;;
61739;SDS011;47645;45.288;12.038;2022-08-14T05:21:24;7.5;;;5.0;;
61739;SDS011;47645;45.288;12.038;2022-08-14T05:31:24;7.7;;;4.3;;
61739;SDS011;47645;45.288;12.038;2022-08-14T05:41:26;5.9;;;3.7;;
61739;SDS011;47645;45.288;12.038;2022-08-14T05:51:27;7.8;;;3.2;;
61739;SDS011;47645;45.288;12.038;2022-08-14T06:01:28;5.6;;;3.1;;
61739;SDS011;47645;45.288;12.038;2022-08-14T06:11:29;3.4;;;2.4;;
61739;SDS011;47645;45.288;12.038;2022-08-14T06:21:30;4.5;;;2.8;;
61739;SDS011;47645;45.288;12.038;2022-08-14T06:31:31;2.7;;;1.7;;
61739;SDS011;47645;45.288;12.038;2022-08-14T06:41:32;2.7;;;1.8;;
61739;SDS011;47645;45.288;12.038;2022-08-14T06:51:34;2.8;;;1.3;;
61739;SDS011;47645;45.288;12.038;2022-08-14T07:11:35;2.8;;;1.8;;
61739;SDS011;47645;45.288;12.038;2022-08-14T07:21:36;5.7;;;1.8;;
61739;SDS011;47645;45.288;12.038;2022-08-14T07:31:37;4.0;;;1.4;;
61739;SDS011;47645;45.288;12.038;2022-08-14T07:41:38;3.2;;;1.4;;
61739;SDS011;47645;45.288;12.038;2022-08-14T07:51:40;5.0;;;1.4;;
61739;SDS011;47645;45.288;12.038;2022-08-14T08:01:41;2.1;;;1.3;;
61739;SDS011;47645;45.288;12.038;2022-08-14T08:11:42;1.9;;;1.2;;
61739;SDS011;47645;45.288;12.038;2022-08-14T08:21:44;3.0;;;1.4;;
61739;SDS011;47645;45.288;12.038;2022-08-14T08:31:46;1.9;;;1.4;;
61739;SDS011;47645;45.288;12.038;2022-08-14T08:41:47;2.5;;;1.4;;
61739;SDS011;47645;45.288;12.038;2022-08-14T08:51:47;2.1;;;1.4;;
61739;SDS011;47645;45.288;12.038;2022-08-14T09:01:51;3.5;;;1.4;;
61739;SDS011;47645;45.288;12.038;2022-08-14T09:11:51;2.4;;;1.2;;
61739;SDS011;47645;45.288;12.038;2022-08-14T09:21:53;3.7;;;1.3;;
61739;SDS011;47645;45.288;12.038;2022-08-14T09:31:53;2.1;;;1.1;;
61739;SDS011;47645;45.288;12.038;2022-08-14T09:41:59;2.9;;;1.2;;
61739;SDS011;47645;45.288;12.038;2022-08-14T09:52:01;2.7;;;1.3;;
61739;SDS011;47645;45.288;12.038;2022-08-14T10:01:56;2.6;;;1.2;;
61739;SDS011;47645;45.288;12.038;2022-08-14T10:11:58;5.7;;;1.8;;
61739;SDS011;47645;45.288;12.038;2022-08-14T10:22:01;2.5;;;1.1;;
61739;SDS011;47645;45.288;12.038;2022-08-14T10:32:01;2.2;;;1.3;;
61739;SDS011;47645;45.288;12.038;2022-08-14T10:42:05;2.2;;;1.1;;
61739;SDS011;47645;45.288;12.038;2022-08-14T10:52:06;2.9;;;1.3;;
61739;SDS011;47645;45.288;12.038;2022-08-14T11:02:14;2.6;;;1.2;;
61739;SDS011;47645;45.288;12.038;2022-08-14T11:12:07;3.9;;;1.2;;
61739;SDS011;47645;45.288;12.038;2022-08-14T11:22:08;1.8;;;1.3;;
61739;SDS011;47645;45.288;12.038;2022-08-14T11:32:10;1.9;;;1.2;;
61739;SDS011;47645;45.288;12.038;2022-08-14T11:42:18;1.9;;;1.0;;
61739;SDS011;47645;45.288;12.038;2022-08-14T11:52:14;2.0;;;1.1;;
61739;SDS011;47645;45.288;12.038;2022-08-14T12:02:15;2.3;;;1.1;;
61739;SDS011;47645;45.288;12.038;2022-08-14T12:12:18;2.7;;;1.1;;
61739;SDS011;47645;45.288;12.038;2022-08-14T12:22:19;2.5;;;1.0;;
61739;SDS011;47645;45.288;12.038;2022-08-14T12:32:20;2.6;;;1.0;;
61739;SDS011;47645;45.288;12.038;2022-08-14T12:42:32;2.1;;;0.9;;
61739;SDS011;47645;45.288;12.038;2022-08-14T12:52:27;1.2;;;0.8;;
61739;SDS011;47645;45.288;12.038;2022-08-14T13:02:29;1.7;;;0.9;;
61739;SDS011;47645;45.288;12.038;2022-08-14T13:12:29;1.7;;;1.0;;
61739;SDS011;47645;45.288;12.038;2022-08-14T13:22:36;2.1;;;0.7;;
61739;SDS011;47645;45.288;12.038;2022-08-14T13:32:34;1.1;;;0.8;;
61739;SDS011;47645;45.288;12.038;2022-08-14T13:42:35;3.6;;;1.1;;
61739;SDS011;47645;45.288;12.038;2022-08-14T13:52:39;2.2;;;1.2;;
61739;SDS011;47645;45.288;12.038;2022-08-14T14:02:38;3.3;;;1.0;;
61739;SDS011;47645;45.288;12.038;2022-08-14T14:12:39;2.8;;;1.0;;
61739;SDS011;47645;45.288;12.038;2022-08-14T14:22:43;1.8;;;0.9;;
61739;SDS011;47645;45.288;12.038;2022-08-14T14:32:49;2.6;;;0.9;;
61739;SDS011;47645;45.288;12.038;2022-08-14T14:42:46;1.8;;;1.1;;
61739;SDS011;47645;45.288;12.038;2022-08-14T14:52:49;1.5;;;1.0;;
61739;SDS011;47645;45.288;12.038;2022-08-14T15:02:50;1.4;;;0.9;;
61739;SDS011;47645;45.288;12.038;2022-08-14T15:12:50;2.5;;;1.2;;
61739;SDS011;47645;45.288;12.038;2022-08-14T15:22:53;3.1;;;1.1;;
61739;SDS011;47645;45.288;12.038;2022-08-14T15:32:54;2.9;;;1.1;;
61739;SDS011;47645;45.288;12.038;2022-08-14T15:42:57;3.6;;;1.2;;
61739;SDS011;47645;45.288;12.038;2022-08-14T15:52:58;2.2;;;1.2;;
61739;SDS011;47645;45.288;12.038;2022-08-14T16:03:00;2.3;;;1.2;;
61739;SDS011;47645;45.288;12.038;2022-08-14T16:13:01;3.5;;;1.4;;
61739;SDS011;47645;45.288;12.038;2022-08-14T16:23:03;1.9;;;1.3;;
61739;SDS011;47645;45.288;12.038;2022-08-14T16:33:07;2.2;;;1.0;;
61739;SDS011;47645;45.288;12.038;2022-08-14T16:43:07;4.1;;;1.6;;
61739;SDS011;47645;45.288;12.038;2022-08-14T16:53:09;4.9;;;1.5;;
61739;SDS011;47645;45.288;12.038;2022-08-14T17:03:11;3.5;;;1.7;;
61739;SDS011;47645;45.288;12.038;2022-08-14T17:13:16;5.4;;;1.5;;
61739;SDS011;47645;45.288;12.038;2022-08-14T17:23:14;2.7;;;1.6;;
61739;SDS011;47645;45.288;12.038;2022-08-14T17:33:17;5.5;;;2.4;;
61739;SDS011;47645;45.288;12.038;2022-08-14T17:43:17;4.8;;;2.0;;
61739;SDS011;47645;45.288;12.038;2022-08-14T17:53:19;4.2;;;2.4;;
61739;SDS011;47645;45.288;12.038;2022-08-14T18:03:20;4.2;;;2.0;;
61739;SDS011;47645;45.288;12.038;2022-08-14T18:13:22;4.9;;;1.9;;
61739;SDS011;47645;45.288;12.038;2022-08-14T18:23:24;3.3;;;1.6;;
61739;SDS011;47645;45.288;12.038;2022-08-14T18:33:25;4.3;;;1.9;;
61739;SDS011;47645;45.288;12.038;2022-08-14T18:43:43;3.4;;;1.7;;
61739;SDS011;47645;45.288;12.038;2022-08-14T18:53:29;4.0;;;1.5;;
61739;SDS011;47645;45.288;12.038;2022-08-14T19:13:35;4.6;;;1.9;;
61739;SDS011;47645;45.288;12.038;2022-08-14T19:23:33;3.4;;;1.8;;
61739;SDS011;47645;45.288;12.038;2022-08-14T19:33:51;7.1;;;3.0;;
61739;SDS011;47645;45.288;12.038;2022-08-14T19:43:36;4.2;;;2.2;;
61739;SDS011;47645;45.288;12.038;2022-08-14T19:53:46;3.3;;;1.9;;
61739;SDS011;47645;45.288;12.038;2022-08-14T20:03:39;3.6;;;2.0;;
61739;SDS011;47645;45.288;12.038;2022-08-14T20:13:40;5.0;;;2.4;;
61739;SDS011;47645;45.288;12.038;2022-08-14T20:23:41;4.0;;;2.6;;
61739;SDS011;47645;45.288;12.038;2022-08-14T20:34:15;5.1;;;2.6;;
61739;SDS011;47645;45.288;12.038;2022-08-14T20:53:53;4.6;;;3.3;;
61739;SDS011;47645;45.288;12.038;2022-08-14T21:03:50;4.1;;;2.8;;
61739;SDS011;47645;45.288;12.038;2022-08-14T21:13:50;4.1;;;2.7;;
61739;SDS011;47645;45.288;12.038;2022-08-14T21:23:52;3.8;;;2.0;;
61739;SDS011;47645;45.288;12.038;2022-08-14T21:33:51;3.7;;;2.6;;
61739;SDS011;47645;45.288;12.038;2022-08-14T21:44:03;4.9;;;2.7;;
61739;SDS011;47645;45.288;12.038;2022-08-14T21:53:59;3.2;;;2.6;;
61739;SDS011;47645;45.288;12.038;2022-08-14T22:03:56;4.1;;;2.4;;
61739;SDS011;47645;45.288;12.038;2022-08-14T22:13:57;6.1;;;2.8;;
61739;SDS011;47645;45.288;12.038;2022-08-14T22:23:58;3.6;;;2.4;;
61739;SDS011;47645;45.288;12.038;2022-08-14T22:34:00;4.8;;;2.8;;
61739;SDS011;47645;45.288;12.038;2022-08-14T22:44:03;3.9;;;2.7;;
61739;SDS011;47645;45.288;12.038;2022-08-14T22:54:03;4.1;;;2.8;;
61739;SDS011;47645;45.288;12.038;2022-08-14T23:04:05;7.0;;;3.2;;
61739;SDS011;47645;45.288;12.038;2022-08-14T23:14:06;4.5;;;2.9;;
61739;SDS011;47645;45.288;12.038;2022-08-14T23:24:06;5.6;;;3.1;;
61739;SDS011;47645;45.288;12.038;2022-08-14T23:34:08;4.3;;;3.0;;
61739;SDS011;47645;45.288;12.038;2022-08-14T23:44:09;4.7;;;3.1;;
61739;SDS011;47645;45.288;12.038;2022-08-14T23:54:12;4.5;;;3.4;;
